createdAt,value
2017-09-19T00:00:13.593Z,13.22
2017-09-19T00:01:13.288Z,13.16
2017-09-19T00:02:13.626Z,13.23
2017-09-19T00:03:13.969Z,13.16
2017-09-19T00:04:13.666Z,13.16
2017-09-19T00:05:13.998Z,13.22
2017-09-19T00:06:13.698Z,13.2
2017-09-19T00:07:14.045Z,13.12
2017-09-19T00:08:13.728Z,13.19
2017-09-19T00:09:14.075Z,13.15
2017-09-19T00:10:13.443Z,13.15
2017-09-19T00:11:13.788Z,13.16
2017-09-19T00:12:13.812Z,13.2
2017-09-19T00:13:13.826Z,13.13
2017-09-19T00:14:13.840Z,13.15
2017-09-19T00:15:14.181Z,13.03
2017-09-19T00:16:13.556Z,13.09
2017-09-19T00:17:14.221Z,13.03
2017-09-19T00:18:14.238Z,13.11
2017-09-19T00:19:13.935Z,13.09
2017-09-19T00:20:13.627Z,13.04
2017-09-19T00:21:14.442Z,13.03
2017-09-19T00:22:13.984Z,13.09
2017-09-19T00:23:14.322Z,13.03
2017-09-19T00:24:14.025Z,13.09
2017-09-19T00:25:14.047Z,13.03
2017-09-19T00:26:14.377Z,13.08
2017-09-19T00:27:14.068Z,13.08
2017-09-19T00:28:14.411Z,13.04
2017-09-19T00:29:14.436Z,13.03
2017-09-19T00:30:14.124Z,13
2017-09-19T00:31:14.145Z,12.94
2017-09-19T00:32:14.159Z,12.98
2017-09-19T00:33:14.176Z,12.98
2017-09-19T00:34:14.198Z,12.97
2017-09-19T00:35:14.647Z,12.93
2017-09-19T00:36:13.910Z,12.9
2017-09-19T00:37:14.252Z,12.9
2017-09-19T00:38:14.671Z,12.93
2017-09-19T00:39:14.670Z,12.93
2017-09-19T00:40:14.308Z,12.95
2017-09-19T00:41:14.752Z,12.93
2017-09-19T00:42:14.675Z,12.9
2017-09-19T00:43:14.037Z,12.87
2017-09-19T00:44:14.374Z,12.86
2017-09-19T00:45:14.067Z,12.85
2017-09-19T00:46:14.084Z,12.85
2017-09-19T00:47:14.425Z,12.83
2017-09-19T00:48:14.843Z,12.83
2017-09-19T00:49:14.466Z,12.8
2017-09-19T00:50:14.481Z,12.85
2017-09-19T00:51:14.824Z,12.79
2017-09-19T00:52:14.514Z,12.8
2017-09-19T00:53:14.531Z,12.79
2017-09-19T00:54:14.875Z,12.78
2017-09-19T00:55:14.568Z,12.75
2017-09-19T00:56:17.828Z,12.76
2017-09-19T00:57:14.607Z,12.75
2017-09-19T00:58:14.300Z,12.68
2017-09-19T00:59:14.975Z,12.64
2017-09-19T01:00:14.662Z,12.68
2017-09-19T01:01:14.694Z,12.68
2017-09-19T01:02:14.695Z,12.79
2017-09-19T01:03:14.592Z,12.67
2017-09-19T01:04:14.731Z,12.67
2017-09-19T01:05:14.744Z,12.67
2017-09-19T01:06:14.772Z,12.65
2017-09-19T01:07:14.783Z,12.67
2017-09-19T01:08:14.802Z,12.61
2017-09-19T01:09:14.822Z,12.65
2017-09-19T01:10:14.510Z,12.6
2017-09-19T01:11:14.854Z,12.62
2017-09-19T01:12:14.542Z,12.64
2017-09-19T01:13:15.208Z,12.62
2017-09-19T01:14:14.907Z,12.65
2017-09-19T01:15:14.925Z,12.65
2017-09-19T01:16:15.269Z,12.53
2017-09-19T01:17:14.960Z,12.57
2017-09-19T01:18:15.292Z,12.65
2017-09-19T01:19:14.995Z,12.54
2017-09-19T01:20:15.013Z,12.49
2017-09-19T01:21:15.353Z,12.49
2017-09-19T01:22:15.037Z,12.5
2017-09-19T01:23:15.389Z,12.53
2017-09-19T01:24:15.078Z,12.5
2017-09-19T01:25:15.092Z,12.53
2017-09-19T01:26:14.792Z,12.5
2017-09-19T01:27:15.452Z,12.43
2017-09-19T01:28:15.147Z,12.46
2017-09-19T01:29:15.163Z,12.53
2017-09-19T01:30:14.856Z,12.5
2017-09-19T01:31:15.204Z,12.42
2017-09-19T01:32:15.213Z,12.37
2017-09-19T01:33:15.233Z,12.42
2017-09-19T01:34:14.927Z,12.46
2017-09-19T01:35:15.645Z,12.43
2017-09-19T01:36:15.657Z,12.42
2017-09-19T01:37:15.308Z,12.4
2017-09-19T01:38:15.317Z,12.45
2017-09-19T01:39:15.015Z,12.36
2017-09-19T01:40:15.034Z,12.42
2017-09-19T01:41:15.369Z,12.4
2017-09-19T01:42:15.393Z,12.46
2017-09-19T01:43:15.415Z,12.36
2017-09-19T01:44:15.429Z,12.49
2017-09-19T01:45:15.762Z,12.37
2017-09-19T01:46:15.453Z,12.42
2017-09-19T01:47:15.572Z,12.39
2017-09-19T01:48:15.589Z,12.4
2017-09-19T01:49:15.634Z,12.36
2017-09-19T01:50:15.626Z,12.39
2017-09-19T01:51:15.958Z,12.42
2017-09-19T01:52:16.089Z,12.39
2017-09-19T01:53:15.673Z,12.37
2017-09-19T01:54:16.049Z,12.35
2017-09-19T01:55:16.035Z,12.35
2017-09-19T01:56:16.045Z,12.28
2017-09-19T01:57:15.759Z,12.25
2017-09-19T01:58:15.887Z,12.32
2017-09-19T01:59:16.187Z,12.35
2017-09-19T02:00:15.875Z,12.32
2017-09-19T02:01:16.027Z,12.28
2017-09-19T02:02:16.231Z,12.25
2017-09-19T02:03:15.549Z,12.25
2017-09-19T02:04:16.205Z,12.24
2017-09-19T02:05:16.216Z,12.25
2017-09-19T02:06:15.597Z,12.25
2017-09-19T02:07:15.591Z,12.29
2017-09-19T02:08:16.240Z,12.27
2017-09-19T02:09:15.914Z,12.22
2017-09-19T02:10:16.246Z,12.22
2017-09-19T02:11:15.958Z,12.2
2017-09-19T02:12:15.960Z,12.22
2017-09-19T02:13:15.718Z,12.12
2017-09-19T02:14:16.322Z,12.22
2017-09-19T02:15:16.274Z,12.12
2017-09-19T02:16:15.836Z,12.22
2017-09-19T02:17:16.311Z,12.13
2017-09-19T02:18:15.851Z,12.2
2017-09-19T02:19:16.180Z,12.15
2017-09-19T02:20:16.189Z,12.15
2017-09-19T02:21:16.059Z,12.1
2017-09-19T02:22:16.075Z,12.13
2017-09-19T02:23:16.089Z,12.13
2017-09-19T02:24:16.102Z,12.18
2017-09-19T02:25:16.449Z,12.09
2017-09-19T02:26:16.469Z,12.1
2017-09-19T02:27:16.161Z,12.09
2017-09-19T02:28:16.268Z,12.06
2017-09-19T02:29:16.519Z,12.1
2017-09-19T02:30:16.532Z,12.07
2017-09-19T02:31:16.564Z,12.07
2017-09-19T02:32:16.243Z,12.07
2017-09-19T02:33:16.584Z,12.03
2017-09-19T02:34:16.279Z,12.02
2017-09-19T02:35:16.619Z,12
2017-09-19T02:36:16.315Z,11.99
2017-09-19T02:37:16.331Z,11.99
2017-09-19T02:38:16.347Z,11.95
2017-09-19T02:39:16.360Z,12.03
2017-09-19T02:40:16.382Z,12.02
2017-09-19T02:41:16.404Z,11.99
2017-09-19T02:42:16.420Z,12.02
2017-09-19T02:43:16.781Z,11.99
2017-09-19T02:44:16.776Z,12.02
2017-09-19T02:45:16.790Z,12.02
2017-09-19T02:46:16.808Z,11.95
2017-09-19T02:47:16.504Z,11.97
2017-09-19T02:48:16.512Z,11.99
2017-09-19T02:49:16.529Z,11.87
2017-09-19T02:50:16.561Z,11.91
2017-09-19T02:51:16.923Z,11.94
2017-09-19T02:52:16.581Z,11.86
2017-09-19T02:53:16.959Z,11.84
2017-09-19T02:54:16.623Z,11.9
2017-09-19T02:55:16.633Z,11.95
2017-09-19T02:56:16.979Z,11.9
2017-09-19T02:57:16.663Z,11.81
2017-09-19T02:58:17.009Z,11.94
2017-09-19T02:59:16.702Z,11.94
2017-09-19T03:00:16.714Z,11.87
2017-09-19T03:01:17.260Z,11.88
2017-09-19T03:02:16.427Z,11.86
2017-09-19T03:03:16.765Z,11.86
2017-09-19T03:04:16.459Z,11.73
2017-09-19T03:05:16.482Z,11.86
2017-09-19T03:06:17.144Z,11.86
2017-09-19T03:07:16.518Z,11.88
2017-09-19T03:08:17.183Z,11.9
2017-09-19T03:09:16.543Z,11.78
2017-09-19T03:10:16.882Z,11.83
2017-09-19T03:11:16.574Z,11.8
2017-09-19T03:12:16.927Z,11.83
2017-09-19T03:13:17.248Z,11.83
2017-09-19T03:14:16.629Z,11.84
2017-09-19T03:15:17.300Z,11.73
2017-09-19T03:16:17.308Z,11.78
2017-09-19T03:17:17.324Z,11.83
2017-09-19T03:18:17.030Z,11.81
2017-09-19T03:19:17.039Z,11.73
2017-09-19T03:20:16.722Z,11.78
2017-09-19T03:21:17.066Z,11.8
2017-09-19T03:22:17.083Z,11.84
2017-09-19T03:23:17.419Z,11.75
2017-09-19T03:24:17.110Z,11.7
2017-09-19T03:25:17.454Z,11.73
2017-09-19T03:26:16.822Z,11.75
2017-09-19T03:27:17.485Z,11.78
2017-09-19T03:28:17.184Z,11.72
2017-09-19T03:29:17.200Z,11.66
2017-09-19T03:30:17.221Z,11.7
2017-09-19T03:31:17.233Z,11.75
2017-09-19T03:32:17.247Z,11.66
2017-09-19T03:33:17.268Z,11.75
2017-09-19T03:34:17.290Z,11.63
2017-09-19T03:35:17.313Z,11.7
2017-09-19T03:36:17.022Z,11.7
2017-09-19T03:37:17.331Z,11.68
2017-09-19T03:38:17.353Z,11.75
2017-09-19T03:39:17.369Z,11.69
2017-09-19T03:40:17.708Z,11.78
2017-09-19T03:41:17.409Z,11.7
2017-09-19T03:42:17.745Z,11.73
2017-09-19T03:43:17.616Z,11.66
2017-09-19T03:44:17.129Z,11.69
2017-09-19T03:45:17.470Z,11.68
2017-09-19T03:46:17.481Z,11.62
2017-09-19T03:47:17.821Z,11.63
2017-09-19T03:48:17.510Z,11.68
2017-09-19T03:49:17.859Z,11.57
2017-09-19T03:50:17.872Z,11.65
2017-09-19T03:51:17.885Z,11.66
2017-09-19T03:52:17.593Z,11.57
2017-09-19T03:53:17.271Z,11.59
2017-09-19T03:54:17.943Z,11.63
2017-09-19T03:55:17.317Z,11.6
2017-09-19T03:56:17.649Z,11.63
2017-09-19T03:57:17.340Z,11.65
2017-09-19T03:58:18.008Z,11.57
2017-09-19T03:59:18.018Z,11.51
2017-09-19T04:00:18.031Z,11.54
2017-09-19T04:01:18.260Z,11.65
2017-09-19T04:02:17.749Z,11.62
2017-09-19T04:03:18.091Z,11.52
2017-09-19T04:04:18.110Z,11.51
2017-09-19T04:05:17.803Z,11.54
2017-09-19T04:06:17.816Z,11.55
2017-09-19T04:07:18.153Z,11.55
2017-09-19T04:08:18.172Z,11.52
2017-09-19T04:09:18.190Z,11.47
2017-09-19T04:10:17.877Z,11.47
2017-09-19T04:11:17.575Z,11.6
2017-09-19T04:12:17.905Z,11.44
2017-09-19T04:13:18.255Z,11.51
2017-09-19T04:14:17.952Z,11.47
2017-09-19T04:15:17.971Z,11.52
2017-09-19T04:16:18.310Z,11.52
2017-09-19T04:17:17.995Z,11.45
2017-09-19T04:18:18.012Z,11.47
2017-09-19T04:19:18.026Z,11.5
2017-09-19T04:20:18.362Z,11.54
2017-09-19T04:21:18.383Z,11.5
2017-09-19T04:22:18.392Z,11.48
2017-09-19T04:23:18.100Z,11.44
2017-09-19T04:24:18.103Z,11.5
2017-09-19T04:25:18.127Z,11.48
2017-09-19T04:26:18.149Z,11.41
2017-09-19T04:27:18.489Z,11.47
2017-09-19T04:28:17.854Z,11.5
2017-09-19T04:29:18.513Z,11.47
2017-09-19T04:30:18.210Z,11.47
2017-09-19T04:31:18.230Z,11.43
2017-09-19T04:32:18.248Z,11.45
2017-09-19T04:33:18.579Z,11.41
2017-09-19T04:34:18.270Z,11.43
2017-09-19T04:35:18.293Z,11.41
2017-09-19T04:36:18.305Z,11.37
2017-09-19T04:37:18.869Z,11.44
2017-09-19T04:38:18.686Z,11.43
2017-09-19T04:39:18.352Z,11.4
2017-09-19T04:40:18.383Z,11.33
2017-09-19T04:41:18.389Z,11.37
2017-09-19T04:42:18.415Z,11.36
2017-09-19T04:43:18.750Z,11.37
2017-09-19T04:44:18.111Z,11.41
2017-09-19T04:45:18.460Z,11.37
2017-09-19T04:46:18.802Z,11.3
2017-09-19T04:47:18.493Z,11.33
2017-09-19T04:48:18.832Z,11.36
2017-09-19T04:49:18.190Z,11.3
2017-09-19T04:50:18.858Z,11.37
2017-09-19T04:51:18.555Z,11.33
2017-09-19T04:52:18.896Z,11.26
2017-09-19T04:53:18.583Z,11.35
2017-09-19T04:54:18.927Z,11.29
2017-09-19T04:55:18.292Z,11.3
2017-09-19T04:56:18.966Z,11.27
2017-09-19T04:57:18.650Z,11.35
2017-09-19T04:58:18.357Z,11.32
2017-09-19T04:59:18.370Z,11.23
2017-09-19T05:00:18.715Z,11.26
2017-09-19T05:01:18.721Z,11.3
2017-09-19T05:02:19.077Z,11.3
2017-09-19T05:03:18.428Z,11.35
2017-09-19T05:04:19.105Z,11.36
2017-09-19T05:05:18.780Z,11.23
2017-09-19T05:06:19.123Z,11.29
2017-09-19T05:07:18.814Z,11.3
2017-09-19T05:08:18.508Z,11.27
2017-09-19T05:09:18.524Z,11.3
2017-09-19T05:10:19.186Z,11.3
2017-09-19T05:11:19.196Z,11.33
2017-09-19T05:12:19.224Z,11.27
2017-09-19T05:13:18.925Z,11.26
2017-09-19T05:14:19.252Z,11.3
2017-09-19T05:15:18.945Z,11.3
2017-09-19T05:16:18.963Z,11.25
2017-09-19T05:17:18.974Z,11.23
2017-09-19T05:18:18.998Z,11.25
2017-09-19T05:19:18.685Z,11.33
2017-09-19T05:20:19.029Z,11.3
2017-09-19T05:21:19.043Z,11.23
2017-09-19T05:22:18.731Z,11.29
2017-09-19T05:23:18.754Z,11.26
2017-09-19T05:24:19.628Z,11.25
2017-09-19T05:25:19.279Z,11.32
2017-09-19T05:26:19.123Z,11.3
2017-09-19T05:27:20.371Z,11.4
2017-09-19T05:28:18.866Z,11.35
2017-09-19T05:29:19.172Z,11.41
2017-09-19T05:30:19.628Z,11.37
2017-09-19T05:31:19.300Z,11.37
2017-09-19T05:32:19.318Z,11.43
2017-09-19T05:33:19.792Z,11.35
2017-09-19T05:34:19.584Z,11.45
2017-09-19T05:35:18.942Z,11.51
2017-09-19T05:36:18.961Z,11.48
2017-09-19T05:37:19.621Z,11.45
2017-09-19T05:38:19.001Z,11.5
2017-09-19T05:39:19.661Z,11.51
2017-09-19T05:40:19.026Z,11.54
2017-09-19T05:41:19.357Z,11.55
2017-09-19T05:42:19.532Z,11.54
2017-09-19T05:43:19.405Z,11.57
2017-09-19T05:44:19.849Z,11.69
2017-09-19T05:45:19.764Z,11.66
2017-09-19T05:46:19.132Z,11.69
2017-09-19T05:47:19.465Z,11.68
2017-09-19T05:48:19.808Z,11.69
2017-09-19T05:49:19.175Z,11.69
2017-09-19T05:50:19.274Z,11.65
2017-09-19T05:51:19.231Z,11.7
2017-09-19T05:52:19.877Z,11.72
2017-09-19T05:53:19.238Z,11.7
2017-09-19T05:54:19.251Z,11.62
2017-09-19T05:55:19.595Z,11.78
2017-09-19T05:56:19.950Z,11.73
2017-09-19T05:57:19.303Z,11.75
2017-09-19T05:58:19.642Z,11.81
2017-09-19T05:59:19.337Z,11.8
2017-09-19T06:00:20.004Z,11.72
2017-09-19T06:01:20.014Z,11.78
2017-09-19T06:02:19.707Z,11.84
2017-09-19T06:03:20.052Z,11.78
2017-09-19T06:04:19.737Z,11.78
2017-09-19T06:05:19.429Z,11.84
2017-09-19T06:06:19.776Z,11.87
2017-09-19T06:07:20.118Z,11.91
2017-09-19T06:08:19.801Z,11.97
2017-09-19T06:09:19.821Z,11.95
2017-09-19T06:10:20.162Z,12.02
2017-09-19T06:11:20.182Z,12.04
2017-09-19T06:12:19.546Z,12
2017-09-19T06:13:20.214Z,12.02
2017-09-19T06:14:19.911Z,12.12
2017-09-19T06:15:19.921Z,12.06
2017-09-19T06:16:19.936Z,12.17
2017-09-19T06:17:20.273Z,12.17
2017-09-19T06:18:20.300Z,12.2
2017-09-19T06:19:20.317Z,12.25
2017-09-19T06:20:19.680Z,12.29
2017-09-19T06:21:20.019Z,12.27
2017-09-19T06:22:20.035Z,12.24
2017-09-19T06:23:19.729Z,12.42
2017-09-19T06:24:20.403Z,12.29
2017-09-19T06:25:20.414Z,12.39
2017-09-19T06:26:19.776Z,12.29
2017-09-19T06:27:20.118Z,12.36
2017-09-19T06:28:19.814Z,12.4
2017-09-19T06:29:20.475Z,12.45
2017-09-19T06:30:20.496Z,12.46
2017-09-19T06:31:20.185Z,12.55
2017-09-19T06:32:20.201Z,12.55
2017-09-19T06:33:20.223Z,12.6
2017-09-19T06:34:20.569Z,12.54
2017-09-19T06:35:20.256Z,12.6
2017-09-19T06:36:20.693Z,12.67
2017-09-19T06:37:20.714Z,12.7
2017-09-19T06:38:20.306Z,12.76
2017-09-19T06:39:20.314Z,12.68
2017-09-19T06:40:20.389Z,12.78
2017-09-19T06:41:20.348Z,12.76
2017-09-19T06:42:20.370Z,12.87
2017-09-19T06:43:20.397Z,12.85
2017-09-19T06:44:20.405Z,12.85
2017-09-19T06:45:20.523Z,12.95
2017-09-19T06:46:20.845Z,12.94
2017-09-19T06:47:20.463Z,12.95
2017-09-19T06:48:20.582Z,12.95
2017-09-19T06:49:20.478Z,13
2017-09-19T06:50:20.878Z,13.04
2017-09-19T06:51:20.199Z,13.05
2017-09-19T06:52:20.985Z,13.13
2017-09-19T06:53:20.675Z,13.08
2017-09-19T06:54:20.684Z,13.04
2017-09-19T06:55:20.382Z,13.15
2017-09-19T06:56:20.278Z,13.18
2017-09-19T06:57:20.623Z,13.16
2017-09-19T06:58:21.173Z,13.22
2017-09-19T06:59:20.985Z,13.27
2017-09-19T07:00:20.681Z,13.28
2017-09-19T07:01:20.677Z,13.35
2017-09-19T07:02:20.858Z,13.37
2017-09-19T07:03:21.177Z,13.37
2017-09-19T07:04:20.541Z,13.38
2017-09-19T07:05:21.183Z,13.47
2017-09-19T07:06:20.773Z,13.5
2017-09-19T07:07:21.003Z,13.47
2017-09-19T07:08:20.808Z,13.49
2017-09-19T07:09:21.330Z,13.56
2017-09-19T07:10:20.517Z,13.65
2017-09-19T07:11:21.044Z,13.74
2017-09-19T07:12:21.289Z,13.63
2017-09-19T07:13:21.018Z,13.65
2017-09-19T07:14:21.000Z,13.68
2017-09-19T07:15:21.272Z,13.78
2017-09-19T07:16:21.263Z,13.77
2017-09-19T07:17:21.278Z,13.77
2017-09-19T07:18:21.335Z,13.81
2017-09-19T07:19:20.674Z,13.86
2017-09-19T07:20:21.144Z,13.87
2017-09-19T07:21:21.453Z,13.93
2017-09-19T07:22:21.373Z,13.96
2017-09-19T07:23:21.384Z,13.93
2017-09-19T07:24:21.080Z,13.97
2017-09-19T07:25:21.100Z,14
2017-09-19T07:26:20.911Z,14.04
2017-09-19T07:27:21.136Z,14.05
2017-09-19T07:28:21.476Z,14.15
2017-09-19T07:29:21.162Z,14.18
2017-09-19T07:30:21.501Z,14.23
2017-09-19T07:31:21.291Z,14.17
2017-09-19T07:32:20.896Z,14.12
2017-09-19T07:33:20.913Z,14.22
2017-09-19T07:34:21.250Z,14.22
2017-09-19T07:35:21.273Z,14.22
2017-09-19T07:36:21.296Z,14.23
2017-09-19T07:37:21.631Z,14.17
2017-09-19T07:38:21.654Z,14.28
2017-09-19T07:39:21.016Z,14.3
2017-09-19T07:40:21.037Z,14.2
2017-09-19T07:41:21.745Z,14.2
2017-09-19T07:42:21.391Z,14.28
2017-09-19T07:43:21.092Z,14.23
2017-09-19T07:44:21.110Z,14.23
2017-09-19T07:45:21.948Z,14.32
2017-09-19T07:46:21.925Z,14.32
2017-09-19T07:47:21.497Z,14.41
2017-09-19T07:48:21.178Z,14.32
2017-09-19T07:49:21.191Z,14.36
2017-09-19T07:50:21.210Z,14.41
2017-09-19T07:51:21.869Z,14.45
2017-09-19T07:52:21.902Z,14.47
2017-09-19T07:53:21.917Z,14.5
2017-09-19T07:54:21.609Z,14.51
2017-09-19T07:55:21.629Z,14.5
2017-09-19T07:56:21.966Z,14.6
2017-09-19T07:57:21.344Z,14.53
2017-09-19T07:58:21.348Z,14.54
2017-09-19T07:59:21.402Z,14.62
2017-09-19T08:00:21.391Z,14.69
2017-09-19T08:01:21.729Z,14.72
2017-09-19T08:02:21.744Z,14.72
2017-09-19T08:03:21.769Z,14.78
2017-09-19T08:04:21.782Z,14.79
2017-09-19T08:05:21.799Z,14.77
2017-09-19T08:06:21.831Z,14.84
2017-09-19T08:07:21.837Z,14.96
2017-09-19T08:08:21.858Z,14.89
2017-09-19T08:09:21.867Z,14.92
2017-09-19T08:10:21.595Z,14.96
2017-09-19T08:11:22.234Z,15
2017-09-19T08:12:22.256Z,14.96
2017-09-19T08:13:21.944Z,15.09
2017-09-19T08:14:21.970Z,15.1
2017-09-19T08:15:22.020Z,15.06
2017-09-19T08:16:21.679Z,15.15
2017-09-19T08:17:22.013Z,15.22
2017-09-19T08:18:21.717Z,15.18
2017-09-19T08:19:22.060Z,15.18
2017-09-19T08:20:22.060Z,15.28
2017-09-19T08:21:22.086Z,15.31
2017-09-19T08:22:22.105Z,15.28
2017-09-19T08:23:21.801Z,15.29
2017-09-19T08:24:22.141Z,15.39
2017-09-19T08:25:22.161Z,15.4
2017-09-19T08:26:21.852Z,15.52
2017-09-19T08:27:21.875Z,15.59
2017-09-19T08:28:22.207Z,15.52
2017-09-19T08:29:22.555Z,15.57
2017-09-19T08:30:22.573Z,15.64
2017-09-19T08:31:22.583Z,15.62
2017-09-19T08:32:21.963Z,15.59
2017-09-19T08:33:22.633Z,15.65
2017-09-19T08:34:22.318Z,15.72
2017-09-19T08:35:22.672Z,15.83
2017-09-19T08:36:22.679Z,15.83
2017-09-19T08:37:22.057Z,15.75
2017-09-19T08:38:22.402Z,15.88
2017-09-19T08:39:22.420Z,15.95
2017-09-19T08:40:22.770Z,15.98
2017-09-19T08:41:22.452Z,16
2017-09-19T08:42:22.471Z,16.16
2017-09-19T08:43:22.483Z,16.12
2017-09-19T08:44:22.825Z,16.24
2017-09-19T08:45:22.870Z,16.21
2017-09-19T08:46:22.548Z,16.24
2017-09-19T08:47:22.559Z,16.26
2017-09-19T08:48:22.584Z,16.36
2017-09-19T08:49:22.272Z,16.42
2017-09-19T08:50:22.297Z,16.39
2017-09-19T08:51:22.312Z,16.41
2017-09-19T08:52:22.676Z,16.46
2017-09-19T08:53:22.673Z,16.38
2017-09-19T08:54:22.359Z,16.51
2017-09-19T08:55:23.028Z,16.51
2017-09-19T08:56:22.731Z,16.6
2017-09-19T08:57:23.070Z,16.64
2017-09-19T08:58:22.767Z,16.61
2017-09-19T08:59:23.109Z,16.75
2017-09-19T09:00:22.801Z,16.78
2017-09-19T09:01:23.146Z,16.84
2017-09-19T09:02:22.510Z,16.81
2017-09-19T09:03:23.185Z,16.89
2017-09-19T09:04:22.873Z,16.91
2017-09-19T09:05:22.576Z,16.96
2017-09-19T09:06:22.912Z,17.01
2017-09-19T09:07:22.609Z,16.99
2017-09-19T09:08:23.274Z,17.02
2017-09-19T09:09:22.960Z,17.02
2017-09-19T09:10:22.986Z,17.01
2017-09-19T09:11:23.333Z,17.12
2017-09-19T09:12:23.023Z,17.05
2017-09-19T09:13:23.037Z,17.12
2017-09-19T09:14:22.744Z,17.26
2017-09-19T09:15:23.086Z,17.26
2017-09-19T09:16:23.424Z,17.36
2017-09-19T09:17:23.119Z,17.31
2017-09-19T09:18:23.466Z,17.38
2017-09-19T09:19:22.832Z,17.56
2017-09-19T09:20:23.171Z,17.48
2017-09-19T09:21:23.518Z,17.57
2017-09-19T09:22:23.214Z,17.56
2017-09-19T09:23:23.230Z,17.67
2017-09-19T09:24:23.250Z,17.65
2017-09-19T09:25:23.602Z,17.65
2017-09-19T09:26:23.327Z,17.67
2017-09-19T09:27:23.700Z,17.76
2017-09-19T09:28:23.491Z,17.8
2017-09-19T09:29:23.171Z,17.9
2017-09-19T09:30:23.362Z,17.89
2017-09-19T09:31:23.386Z,18.05
2017-09-19T09:32:23.729Z,18.03
2017-09-19T09:33:23.424Z,18.05
2017-09-19T09:34:23.125Z,18.11
2017-09-19T09:35:23.463Z,18.22
2017-09-19T09:36:23.158Z,18.34
2017-09-19T09:37:23.829Z,18.31
2017-09-19T09:38:23.525Z,18.41
2017-09-19T09:39:23.856Z,18.44
2017-09-19T09:40:23.552Z,18.49
2017-09-19T09:41:23.907Z,18.63
2017-09-19T09:42:23.932Z,18.63
2017-09-19T09:43:23.618Z,18.68
2017-09-19T09:44:23.968Z,18.74
2017-09-19T09:45:23.334Z,18.81
2017-09-19T09:46:24.016Z,18.86
2017-09-19T09:47:23.377Z,18.9
2017-09-19T09:48:24.042Z,18.84
2017-09-19T09:49:23.737Z,18.88
2017-09-19T09:50:23.810Z,19
2017-09-19T09:51:23.776Z,18.96
2017-09-19T09:52:24.120Z,19.09
2017-09-19T09:53:24.135Z,19.09
2017-09-19T09:54:24.167Z,19.11
2017-09-19T09:55:23.532Z,19.07
2017-09-19T09:56:23.552Z,19.19
2017-09-19T09:57:23.891Z,19.22
2017-09-19T09:58:24.047Z,19.3
2017-09-19T09:59:23.936Z,19.37
2017-09-19T10:00:24.271Z,19.41
2017-09-19T10:01:24.301Z,19.48
2017-09-19T10:02:24.315Z,19.56
2017-09-19T10:03:24.429Z,19.62
2017-09-19T10:04:23.711Z,19.58
2017-09-19T10:05:24.380Z,19.74
2017-09-19T10:06:24.069Z,19.84
2017-09-19T10:07:24.089Z,19.81
2017-09-19T10:08:24.111Z,19.96
2017-09-19T10:09:23.810Z,19.99
2017-09-19T10:10:24.159Z,20.04
2017-09-19T10:11:24.499Z,20.13
2017-09-19T10:12:24.515Z,20.11
2017-09-19T10:13:24.553Z,20.14
2017-09-19T10:14:24.242Z,20.16
2017-09-19T10:15:24.581Z,20.29
2017-09-19T10:16:24.287Z,20.43
2017-09-19T10:17:24.632Z,20.51
2017-09-19T10:18:24.317Z,20.47
2017-09-19T10:19:24.661Z,20.55
2017-09-19T10:20:24.682Z,20.56
2017-09-19T10:21:24.708Z,20.62
2017-09-19T10:22:24.400Z,20.59
2017-09-19T10:23:24.096Z,20.74
2017-09-19T10:24:24.764Z,20.7
2017-09-19T10:25:24.147Z,20.75
2017-09-19T10:26:24.812Z,20.75
2017-09-19T10:27:24.834Z,20.82
2017-09-19T10:28:24.199Z,20.82
2017-09-19T10:29:24.877Z,20.95
2017-09-19T10:30:24.899Z,20.97
2017-09-19T10:31:24.587Z,21.05
2017-09-19T10:32:24.933Z,21.09
2017-09-19T10:33:24.641Z,21.25
2017-09-19T10:34:24.977Z,21.17
2017-09-19T10:35:24.670Z,21.24
2017-09-19T10:36:24.699Z,21.29
2017-09-19T10:37:25.035Z,21.3
2017-09-19T10:38:24.737Z,21.35
2017-09-19T10:39:24.439Z,21.43
2017-09-19T10:40:24.778Z,21.42
2017-09-19T10:41:24.811Z,21.4
2017-09-19T10:42:24.823Z,21.52
2017-09-19T10:43:24.850Z,21.58
2017-09-19T10:44:24.864Z,21.52
2017-09-19T10:45:24.893Z,21.61
2017-09-19T10:46:24.588Z,21.64
2017-09-19T10:47:24.924Z,21.58
2017-09-19T10:48:24.955Z,21.75
2017-09-19T10:49:24.647Z,21.67
2017-09-19T10:50:25.324Z,21.72
2017-09-19T10:51:25.020Z,21.75
2017-09-19T10:52:25.050Z,21.72
2017-09-19T10:53:25.388Z,21.8
2017-09-19T10:54:25.087Z,21.88
2017-09-19T10:55:25.095Z,21.82
2017-09-19T10:56:25.444Z,21.85
2017-09-19T10:57:24.832Z,21.83
2017-09-19T10:58:25.179Z,21.83
2017-09-19T10:59:25.511Z,21.85
2017-09-19T11:00:24.884Z,21.82
2017-09-19T11:01:25.352Z,21.89
2017-09-19T11:02:25.819Z,21.82
2017-09-19T11:03:25.081Z,21.91
2017-09-19T11:04:25.416Z,21.95
2017-09-19T11:05:25.128Z,21.91
2017-09-19T11:06:25.154Z,22
2017-09-19T11:07:25.687Z,22.04
2017-09-19T11:08:25.387Z,22.02
2017-09-19T11:09:25.537Z,22.17
2017-09-19T11:10:25.841Z,22.23
2017-09-19T11:11:25.636Z,22.18
2017-09-19T11:12:25.485Z,22.28
2017-09-19T11:13:25.514Z,22.32
2017-09-19T11:14:25.522Z,22.45
2017-09-19T11:15:25.648Z,22.44
2017-09-19T11:16:25.251Z,22.47
2017-09-19T11:17:25.292Z,22.51
2017-09-19T11:18:25.420Z,22.55
2017-09-19T11:19:25.972Z,22.59
2017-09-19T11:20:25.322Z,22.6
2017-09-19T11:21:25.678Z,22.44
2017-09-19T11:22:26.113Z,22.47
2017-09-19T11:23:25.392Z,22.45
2017-09-19T11:24:26.062Z,22.45
2017-09-19T11:25:25.458Z,22.54
2017-09-19T11:26:26.131Z,22.51
2017-09-19T11:27:25.812Z,22.57
2017-09-19T11:28:25.831Z,22.45
2017-09-19T11:29:25.555Z,22.51
2017-09-19T11:30:25.876Z,22.55
2017-09-19T11:31:25.582Z,22.57
2017-09-19T11:32:25.964Z,22.63
2017-09-19T11:33:26.273Z,22.7
2017-09-19T11:34:26.294Z,22.68
2017-09-19T11:35:25.988Z,22.68
2017-09-19T11:36:26.024Z,22.69
2017-09-19T11:37:26.032Z,22.68
2017-09-19T11:38:25.743Z,22.62
2017-09-19T11:39:25.781Z,22.65
2017-09-19T11:40:26.130Z,22.59
2017-09-19T11:41:25.804Z,22.66
2017-09-19T11:42:25.928Z,22.7
2017-09-19T11:43:26.503Z,22.6
2017-09-19T11:44:26.195Z,22.65
2017-09-19T11:45:25.898Z,22.62
2017-09-19T11:46:25.986Z,22.73
2017-09-19T11:47:26.591Z,22.65
2017-09-19T11:48:26.609Z,22.63
2017-09-19T11:49:26.727Z,22.72
2017-09-19T11:50:26.340Z,22.73
2017-09-19T11:51:26.151Z,22.83
2017-09-19T11:52:26.699Z,22.81
2017-09-19T11:53:26.722Z,22.76
2017-09-19T11:54:26.123Z,22.75
2017-09-19T11:55:26.448Z,22.87
2017-09-19T11:56:26.797Z,22.91
2017-09-19T11:57:26.496Z,22.91
2017-09-19T11:58:26.527Z,22.88
2017-09-19T11:59:26.549Z,22.9
2017-09-19T12:00:26.242Z,22.84
2017-09-19T12:01:26.310Z,22.91
2017-09-19T12:02:26.938Z,22.85
2017-09-19T12:03:26.635Z,22.83
2017-09-19T12:04:26.654Z,22.88
2017-09-19T12:05:26.361Z,22.85
2017-09-19T12:06:27.026Z,22.81
2017-09-19T12:07:26.421Z,22.84
2017-09-19T12:08:26.751Z,22.88
2017-09-19T12:09:27.101Z,22.88
2017-09-19T12:10:26.803Z,22.9
2017-09-19T12:11:26.821Z,22.93
2017-09-19T12:12:26.848Z,22.93
2017-09-19T12:13:26.549Z,22.96
2017-09-19T12:14:26.913Z,22.98
2017-09-19T12:15:27.240Z,23
2017-09-19T12:16:26.676Z,23.05
2017-09-19T12:17:27.306Z,22.98
2017-09-19T12:18:26.664Z,22.98
2017-09-19T12:19:26.757Z,23.03
2017-09-19T12:20:27.037Z,23.1
2017-09-19T12:21:27.376Z,23.17
2017-09-19T12:22:27.081Z,23.03
2017-09-19T12:23:26.805Z,23.08
2017-09-19T12:24:27.450Z,23.18
2017-09-19T12:25:27.466Z,23.27
2017-09-19T12:26:27.177Z,23.28
2017-09-19T12:27:27.208Z,23.2
2017-09-19T12:28:26.926Z,23.25
2017-09-19T12:29:27.567Z,23.41
2017-09-19T12:30:27.263Z,23.37
2017-09-19T12:31:27.618Z,23.4
2017-09-19T12:32:27.668Z,23.48
2017-09-19T12:33:27.846Z,23.5
2017-09-19T12:34:27.776Z,23.56
2017-09-19T12:35:27.064Z,23.54
2017-09-19T12:36:27.410Z,23.56
2017-09-19T12:37:27.439Z,23.56
2017-09-19T12:38:27.790Z,23.55
2017-09-19T12:39:27.474Z,23.55
2017-09-19T12:40:27.499Z,23.55
2017-09-19T12:41:27.234Z,23.51
2017-09-19T12:42:27.316Z,23.56
2017-09-19T12:43:27.255Z,23.48
2017-09-19T12:44:27.619Z,23.48
2017-09-19T12:45:27.628Z,23.47
2017-09-19T12:46:27.646Z,23.44
2017-09-19T12:47:27.670Z,23.5
2017-09-19T12:48:27.694Z,23.54
2017-09-19T12:49:27.391Z,23.37
2017-09-19T12:50:27.741Z,23.34
2017-09-19T12:51:28.105Z,23.4
2017-09-19T12:52:27.463Z,23.28
2017-09-19T12:53:27.492Z,23.27
2017-09-19T12:54:28.152Z,23.32
2017-09-19T12:55:28.184Z,23.41
2017-09-19T12:56:28.213Z,23.24